createdAt,value
2022-09-21T00:00:52.671Z,21.80
2022-09-21T00:04:03.439Z,21.80
2022-09-21T00:07:11.494Z,21.80
2022-09-21T00:10:20.149Z,21.80
2022-09-21T00:13:28.345Z,21.80
2022-09-21T00:16:36.302Z,21.80
2022-09-21T00:19:45.417Z,21.80
2022-09-21T00:22:53.587Z,21.80
2022-09-21T00:26:08.484Z,21.80
2022-09-21T00:29:16.485Z,21.80
2022-09-21T00:32:25.040Z,21.80
2022-09-21T00:35:34.547Z,21.80
2022-09-21T00:38:42.352Z,21.80
2022-09-21T00:41:53.512Z,21.80
2022-09-21T00:45:01.633Z,21.80
2022-09-21T00:48:09.377Z,21.80
2022-09-21T00:51:18.588Z,21.80
2022-09-21T00:54:27.990Z,21.80
2022-09-21T00:57:35.966Z,21.80
2022-09-21T01:00:44.024Z,21.80
2022-09-21T01:03:52.081Z,21.80
2022-09-21T01:07:04.053Z,21.80
2022-09-21T01:10:12.636Z,21.80
2022-09-21T01:13:24.126Z,21.80
2022-09-21T01:16:34.533Z,21.80
2022-09-21T01:19:53.880Z,21.80
2022-09-21T01:23:15.917Z,21.80
2022-09-21T01:26:27.131Z,21.80
2022-09-21T01:29:36.686Z,21.80
2022-09-21T01:32:46.607Z,21.80
2022-09-21T01:35:56.871Z,21.70
2022-09-21T01:39:07.619Z,21.70
2022-09-21T01:42:15.845Z,21.70
2022-09-21T01:45:27.540Z,21.70
2022-09-21T01:48:36.924Z,21.70
2022-09-21T01:51:47.082Z,21.70
2022-09-21T01:54:55.974Z,21.60
2022-09-21T01:58:06.446Z,21.60
2022-09-21T02:01:17.226Z,21.60
2022-09-21T02:04:25.329Z,21.60
2022-09-21T02:07:33.385Z,21.60
2022-09-21T02:10:43.413Z,21.60
2022-09-21T02:13:52.775Z,21.60
2022-09-21T02:17:07.459Z,21.60
2022-09-21T02:20:19.393Z,21.60
2022-09-21T02:23:28.764Z,21.50
2022-09-21T02:26:39.186Z,21.50
2022-09-21T02:29:50.153Z,21.50
2022-09-21T02:33:01.722Z,21.50
2022-09-21T02:36:11.326Z,21.50
2022-09-21T02:39:20.391Z,21.50
2022-09-21T02:42:29.289Z,21.50
2022-09-21T02:45:40.206Z,21.50
2022-09-21T02:48:50.452Z,21.50
2022-09-21T02:51:59.340Z,21.50
2022-09-21T02:55:07.712Z,21.50
2022-09-21T02:58:16.429Z,21.50
2022-09-21T03:01:24.188Z,21.50
2022-09-21T03:04:33.469Z,21.50
2022-09-21T03:07:41.610Z,21.50
2022-09-21T03:10:50.884Z,21.50
2022-09-21T03:13:59.371Z,21.50
2022-09-21T03:17:07.505Z,21.50
2022-09-21T03:20:17.131Z,21.50
2022-09-21T03:23:25.285Z,21.50
2022-09-21T03:26:33.520Z,21.50
2022-09-21T03:29:41.262Z,21.50
2022-09-21T03:32:50.286Z,21.50
2022-09-21T03:35:59.797Z,21.50
2022-09-21T03:39:08.017Z,21.50
2022-09-21T03:42:16.171Z,21.50
2022-09-21T03:45:24.879Z,21.50
2022-09-21T03:48:32.834Z,21.50
2022-09-21T03:51:42.159Z,21.50
2022-09-21T03:54:50.370Z,21.50
2022-09-21T03:57:58.257Z,21.50
2022-09-21T04:01:06.073Z,21.50
2022-09-21T04:04:14.021Z,21.50
2022-09-21T04:07:23.489Z,21.50
2022-09-21T04:10:33.739Z,21.50
2022-09-21T04:13:42.513Z,21.50
2022-09-21T04:16:50.862Z,21.50
2022-09-21T04:19:58.716Z,21.50
2022-09-21T04:23:09.269Z,21.60
2022-09-21T04:26:21.283Z,21.50
2022-09-21T04:29:29.310Z,21.50
2022-09-21T04:32:37.488Z,21.60
2022-09-21T04:35:45.649Z,21.50
2022-09-21T04:38:55.235Z,21.50
2022-09-21T04:42:04.024Z,21.50
2022-09-21T04:45:12.536Z,21.60
2022-09-21T04:48:20.374Z,21.60
2022-09-21T04:51:28.509Z,21.60
2022-09-21T04:54:37.664Z,21.60
2022-09-21T04:57:45.719Z,21.60
2022-09-21T05:00:55.132Z,21.70
2022-09-21T05:04:03.193Z,21.70
2022-09-21T05:07:11.320Z,21.70
2022-09-21T05:10:20.808Z,21.70
2022-09-21T05:13:28.682Z,21.70
2022-09-21T05:16:36.787Z,21.70
2022-09-21T05:19:44.871Z,21.70
2022-09-21T05:22:52.586Z,21.70
2022-09-21T05:26:02.080Z,21.70
2022-09-21T05:29:10.645Z,21.60
2022-09-21T05:32:21.609Z,21.70
2022-09-21T05:35:31.625Z,21.70
2022-09-21T05:38:40.139Z,21.70
2022-09-21T05:41:50.188Z,21.80
2022-09-21T05:44:59.338Z,21.90
2022-09-21T05:48:10.861Z,22.00
2022-09-21T05:51:25.235Z,22.20
2022-09-21T05:54:39.832Z,22.20
2022-09-21T05:57:52.805Z,22.20
2022-09-21T06:01:08.852Z,22.10
2022-09-21T06:04:17.309Z,22.10
2022-09-21T06:07:25.697Z,22.10
2022-09-21T06:10:35.242Z,22.00
2022-09-21T06:13:44.634Z,22.00
2022-09-21T06:16:52.787Z,22.00
2022-09-21T06:20:00.734Z,22.00
2022-09-21T06:23:09.584Z,22.00
2022-09-21T06:26:17.653Z,21.90
2022-09-21T06:29:27.075Z,21.90
2022-09-21T06:32:34.910Z,21.90
2022-09-21T06:35:42.734Z,21.90
2022-09-21T06:38:50.778Z,21.90
2022-09-21T06:41:59.450Z,21.90
2022-09-21T06:45:09.974Z,21.90
2022-09-21T06:48:17.817Z,21.90
2022-09-21T06:51:25.934Z,21.90
2022-09-21T06:54:34.086Z,21.90
2022-09-21T06:57:42.102Z,21.90
2022-09-21T07:00:51.932Z,21.90
2022-09-21T07:04:00.096Z,21.90
2022-09-21T07:07:08.202Z,21.90
2022-09-21T07:10:20.513Z,21.90
2022-09-21T07:13:28.749Z,21.90
2022-09-21T07:16:38.058Z,21.90
2022-09-21T07:19:46.084Z,21.90
2022-09-21T07:22:54.219Z,21.90
2022-09-21T07:26:02.810Z,21.90
2022-09-21T07:29:10.818Z,21.90
2022-09-21T07:32:20.257Z,21.90
2022-09-21T07:35:28.465Z,21.90
2022-09-21T07:38:36.858Z,21.90
2022-09-21T07:41:44.678Z,21.90
2022-09-21T07:45:03.364Z,21.90
2022-09-21T07:48:13.562Z,21.90
2022-09-21T07:51:21.624Z,21.90
2022-09-21T07:54:29.810Z,21.90
2022-09-21T07:57:55.162Z,21.90
2022-09-21T08:01:06.929Z,21.90
2022-09-21T08:04:16.425Z,21.90
2022-09-21T08:07:24.408Z,21.90
2022-09-21T08:10:32.812Z,21.90
2022-09-21T08:13:40.576Z,22.00
2022-09-21T08:16:48.803Z,22.00
2022-09-21T08:19:58.599Z,22.00
2022-09-21T08:23:06.732Z,22.00
2022-09-21T08:26:19.404Z,22.00
2022-09-21T08:29:27.806Z,22.00
2022-09-21T08:32:50.365Z,22.00
2022-09-21T08:36:00.950Z,22.00
2022-09-21T08:39:09.207Z,22.00
2022-09-21T08:42:31.077Z,22.10
2022-09-21T08:45:40.749Z,22.10
2022-09-21T08:48:50.568Z,22.10
2022-09-21T08:52:01.172Z,22.10
2022-09-21T08:55:17.719Z,22.10
2022-09-21T08:58:27.983Z,22.10
2022-09-21T09:01:48.994Z,22.10
2022-09-21T09:04:58.804Z,22.20
2022-09-21T09:08:19.366Z,22.20
2022-09-21T09:11:38.530Z,22.20
2022-09-21T09:14:56.279Z,22.20
2022-09-21T09:18:06.668Z,22.20
2022-09-21T09:21:26.045Z,22.20
2022-09-21T09:24:39.812Z,22.30
2022-09-21T09:27:48.057Z,22.30
2022-09-21T09:30:59.824Z,22.30
2022-09-21T09:34:12.220Z,22.40
2022-09-21T09:37:20.023Z,22.30
2022-09-21T09:40:42.673Z,22.30
2022-09-21T09:44:00.262Z,22.40
2022-09-21T09:47:11.694Z,22.40
2022-09-21T09:50:22.075Z,22.40
2022-09-21T09:53:30.113Z,22.40
2022-09-21T09:56:39.457Z,22.40
2022-09-21T09:59:54.006Z,22.40
2022-09-21T10:03:02.426Z,22.40
2022-09-21T10:06:15.464Z,22.40
2022-09-21T10:09:28.013Z,22.40
2022-09-21T10:12:37.185Z,22.40
2022-09-21T10:15:46.353Z,22.40
2022-09-21T10:18:56.246Z,22.40
2022-09-21T10:22:04.873Z,22.40
2022-09-21T10:25:16.111Z,22.40
2022-09-21T10:28:25.767Z,22.40
2022-09-21T10:31:34.369Z,22.40
2022-09-21T10:34:42.870Z,22.40
2022-09-21T10:37:54.395Z,22.40
2022-09-21T10:41:02.472Z,22.40
2022-09-21T10:44:15.883Z,22.40
2022-09-21T10:47:25.024Z,22.40
2022-09-21T10:50:38.413Z,22.40
2022-09-21T10:53:53.764Z,22.40
2022-09-21T10:57:03.470Z,22.40
2022-09-21T11:00:29.323Z,22.40
2022-09-21T11:03:47.766Z,22.40
2022-09-21T11:06:57.120Z,22.30
2022-09-21T11:10:12.014Z,22.30
2022-09-21T11:13:24.876Z,22.40
2022-09-21T11:16:36.184Z,22.40
2022-09-21T11:19:47.907Z,22.40
2022-09-21T11:23:04.368Z,22.40
2022-09-21T11:26:15.994Z,22.30
2022-09-21T11:29:27.627Z,22.30
2022-09-21T11:32:45.344Z,22.30
2022-09-21T11:35:58.143Z,22.30
2022-09-21T11:39:10.337Z,22.30
2022-09-21T11:42:27.191Z,22.30
2022-09-21T11:45:50.476Z,22.30
2022-09-21T11:49:13.568Z,22.30
2022-09-21T11:52:33.407Z,22.30
2022-09-21T11:56:05.006Z,22.30
2022-09-21T11:59:25.461Z,22.30
2022-09-21T12:03:07.282Z,22.30
2022-09-21T12:06:25.362Z,22.30
2022-09-21T12:09:52.932Z,22.30
2022-09-21T12:13:03.768Z,22.20
2022-09-21T12:16:14.240Z,22.20
2022-09-21T12:19:27.571Z,22.20
2022-09-21T12:22:38.874Z,22.20
2022-09-21T12:25:49.422Z,22.20
2022-09-21T12:29:00.816Z,22.20
2022-09-21T12:32:12.926Z,22.20
2022-09-21T12:35:24.245Z,22.20
2022-09-21T12:38:35.220Z,22.20
2022-09-21T12:41:46.345Z,22.20
2022-09-21T12:44:55.822Z,22.20
2022-09-21T12:48:07.760Z,22.20
2022-09-21T12:51:17.435Z,22.20
2022-09-21T12:54:31.480Z,22.20
2022-09-21T12:58:04.805Z,22.20
2022-09-21T13:01:26.397Z,22.20
2022-09-21T13:04:44.495Z,22.20
2022-09-21T13:08:14.917Z,22.20
2022-09-21T13:11:24.436Z,22.20
2022-09-21T13:14:36.166Z,22.20
2022-09-21T13:17:44.695Z,22.20
2022-09-21T13:20:55.491Z,22.20
2022-09-21T13:24:04.334Z,22.20
2022-09-21T13:27:13.788Z,22.20
2022-09-21T13:30:32.638Z,22.20
2022-09-21T13:33:40.444Z,22.20
2022-09-21T13:37:09.201Z,22.20
2022-09-21T13:40:45.864Z,22.20
2022-09-21T13:44:05.885Z,22.20
2022-09-21T13:47:14.470Z,22.20
2022-09-21T13:50:27.380Z,22.20
2022-09-21T13:53:39.072Z,22.20
2022-09-21T13:56:47.205Z,22.20
2022-09-21T14:00:07.959Z,22.20
2022-09-21T14:03:25.548Z,22.20
2022-09-21T14:06:35.604Z,22.20
2022-09-21T14:09:44.860Z,22.20
2022-09-21T14:12:53.116Z,22.20
2022-09-21T14:16:39.967Z,22.20
2022-09-21T14:20:29.329Z,22.20
2022-09-21T14:23:40.107Z,22.20
2022-09-21T14:26:55.171Z,22.20
2022-09-21T14:30:07.626Z,22.20
2022-09-21T14:33:29.182Z,22.20
2022-09-21T14:36:41.393Z,22.20
2022-09-21T14:39:50.842Z,22.20
2022-09-21T14:43:00.416Z,22.20
2022-09-21T14:46:19.117Z,22.20
2022-09-21T14:49:35.228Z,22.20
2022-09-21T14:52:56.078Z,22.20
2022-09-21T14:56:12.922Z,22.20
2022-09-21T14:59:39.925Z,22.20
2022-09-21T15:02:48.310Z,22.20
2022-09-21T15:05:57.659Z,22.20
2022-09-21T15:09:36.032Z,22.20
2022-09-21T15:12:51.463Z,22.20
2022-09-21T15:16:09.165Z,22.20
2022-09-21T15:19:24.661Z,22.20
2022-09-21T15:22:32.769Z,22.20
2022-09-21T15:25:40.864Z,22.20
2022-09-21T15:29:08.738Z,22.20
2022-09-21T15:32:25.426Z,22.20
2022-09-21T15:35:33.533Z,22.20
2022-09-21T15:38:43.051Z,22.20
2022-09-21T15:41:53.125Z,22.20
2022-09-21T15:45:15.332Z,22.20
2022-09-21T15:48:23.394Z,22.20
2022-09-21T15:51:32.912Z,22.20
2022-09-21T15:54:42.614Z,22.10
2022-09-21T15:57:50.931Z,22.20
2022-09-21T16:01:01.401Z,22.10
2022-09-21T16:04:09.999Z,22.10
2022-09-21T16:07:26.523Z,22.10
2022-09-21T16:10:40.048Z,22.10
2022-09-21T16:14:05.505Z,22.10
2022-09-21T16:17:25.601Z,22.10
2022-09-21T16:20:44.966Z,22.10
2022-09-21T16:23:55.476Z,22.10
2022-09-21T16:27:03.718Z,22.10
2022-09-21T16:30:33.241Z,22.10
2022-09-21T16:33:44.133Z,22.10
2022-09-21T16:36:52.843Z,22.10
2022-09-21T16:40:01.252Z,22.10
2022-09-21T16:43:10.401Z,22.00
2022-09-21T16:46:18.772Z,22.00
2022-09-21T16:49:30.675Z,22.00
2022-09-21T16:52:38.631Z,22.00
2022-09-21T16:55:48.140Z,22.00
2022-09-21T16:58:57.135Z,22.00
2022-09-21T17:02:05.920Z,22.00
2022-09-21T17:05:17.937Z,22.00
2022-09-21T17:08:27.577Z,22.00
2022-09-21T17:11:35.517Z,22.00
2022-09-21T17:14:46.619Z,21.90
2022-09-21T17:17:58.130Z,22.00
2022-09-21T17:21:09.527Z,22.00
2022-09-21T17:24:38.838Z,21.90
2022-09-21T17:27:46.090Z,22.00
2022-09-21T17:30:54.360Z,21.90
2022-09-21T17:34:10.241Z,21.90
2022-09-21T17:37:19.592Z,21.90
2022-09-21T17:40:29.782Z,21.90
2022-09-21T17:43:40.403Z,21.90
2022-09-21T17:46:52.000Z,21.90
2022-09-21T17:50:02.909Z,21.90
2022-09-21T17:53:30.681Z,21.90
2022-09-21T17:56:43.234Z,21.80
2022-09-21T17:59:54.457Z,21.80
2022-09-21T18:03:03.054Z,21.80
2022-09-21T18:06:12.668Z,21.80
2022-09-21T18:09:22.730Z,21.80
2022-09-21T18:12:48.702Z,21.80
2022-09-21T18:16:07.257Z,21.80
2022-09-21T18:19:26.364Z,21.80
2022-09-21T18:22:37.581Z,21.80
2022-09-21T18:25:50.249Z,21.70
2022-09-21T18:28:59.184Z,21.70
2022-09-21T18:32:29.569Z,21.70
2022-09-21T18:35:52.124Z,21.70
2022-09-21T18:39:08.326Z,21.70
2022-09-21T18:42:25.832Z,21.70
2022-09-21T18:45:37.219Z,21.70
2022-09-21T18:48:52.760Z,21.70
2022-09-21T18:52:02.883Z,21.70
2022-09-21T18:55:17.439Z,21.70
2022-09-21T18:58:27.600Z,21.70
2022-09-21T19:01:36.216Z,21.70
2022-09-21T19:04:44.964Z,21.70
2022-09-21T19:07:56.687Z,21.60
2022-09-21T19:11:08.259Z,21.60
2022-09-21T19:14:21.156Z,21.70
2022-09-21T19:17:33.363Z,21.70
2022-09-21T19:21:07.103Z,21.70
2022-09-21T19:24:19.663Z,21.70
2022-09-21T19:27:31.184Z,21.70
2022-09-21T19:30:40.797Z,21.70
2022-09-21T19:33:50.805Z,21.70
2022-09-21T19:37:03.371Z,21.70
2022-09-21T19:40:14.061Z,21.70
2022-09-21T19:43:24.845Z,21.70
2022-09-21T19:46:37.080Z,21.70
2022-09-21T19:49:48.477Z,21.70
2022-09-21T19:53:16.796Z,21.70
2022-09-21T19:56:42.438Z,21.70
2022-09-21T19:59:51.285Z,21.70
2022-09-21T20:03:05.333Z,21.70
2022-09-21T20:06:18.947Z,21.70
2022-09-21T20:09:29.429Z,21.70
2022-09-21T20:12:42.208Z,21.70
2022-09-21T20:15:51.992Z,21.70
2022-09-21T20:19:05.953Z,21.80
2022-09-21T20:22:15.026Z,21.80
2022-09-21T20:25:24.537Z,21.80
2022-09-21T20:28:32.932Z,21.80
2022-09-21T20:31:40.633Z,21.80
2022-09-21T20:34:50.264Z,21.80
2022-09-21T20:38:02.212Z,21.80
2022-09-21T20:41:11.480Z,21.80
2022-09-21T20:44:19.375Z,21.80
2022-09-21T20:47:28.900Z,21.80
2022-09-21T20:50:40.561Z,21.80
2022-09-21T20:53:48.466Z,21.80
2022-09-21T20:56:56.612Z,21.80
2022-09-21T21:00:05.506Z,21.80
2022-09-21T21:03:14.045Z,21.80
2022-09-21T21:06:23.537Z,21.80
2022-09-21T21:09:31.700Z,21.80
2022-09-21T21:12:40.070Z,21.80
2022-09-21T21:15:47.889Z,21.80
2022-09-21T21:18:56.562Z,21.80
2022-09-21T21:22:06.417Z,21.80
2022-09-21T21:25:14.153Z,21.80
2022-09-21T21:28:22.110Z,21.80
2022-09-21T21:31:30.224Z,21.80
2022-09-21T21:34:38.307Z,21.80
2022-09-21T21:37:47.686Z,21.80
2022-09-21T21:40:56.591Z,21.80
2022-09-21T21:44:04.417Z,21.80
2022-09-21T21:47:38.207Z,21.80
2022-09-21T21:50:40.409Z,21.80
2022-09-21T21:53:49.857Z,21.80
2022-09-21T21:56:57.940Z,21.80
2022-09-21T22:00:07.574Z,21.80
2022-09-21T22:03:15.378Z,21.70
2022-09-21T22:06:23.560Z,21.70
2022-09-21T22:09:32.909Z,21.70
2022-09-21T22:12:40.962Z,21.70
2022-09-21T22:15:49.170Z,21.70
2022-09-21T22:18:57.378Z,21.70
2022-09-21T22:22:05.673Z,21.70
2022-09-21T22:25:14.854Z,21.70
2022-09-21T22:28:22.921Z,21.60
2022-09-21T22:31:33.213Z,21.60
2022-09-21T22:34:41.471Z,21.60
2022-09-21T22:37:52.577Z,21.60
2022-09-21T22:41:05.573Z,21.60
2022-09-21T22:44:13.547Z,21.60
2022-09-21T22:47:21.653Z,21.60
2022-09-21T22:50:29.449Z,21.60
2022-09-21T22:53:37.214Z,21.60
2022-09-21T22:56:46.895Z,21.60
2022-09-21T22:59:54.905Z,21.60
2022-09-21T23:03:03.354Z,21.60
2022-09-21T23:06:12.204Z,21.60
2022-09-21T23:09:21.177Z,21.60
2022-09-21T23:12:30.711Z,21.60
2022-09-21T23:15:38.401Z,21.60
2022-09-21T23:18:46.325Z,21.60
2022-09-21T23:21:53.987Z,21.50
2022-09-21T23:25:01.846Z,21.60
2022-09-21T23:28:11.096Z,21.60
2022-09-21T23:31:19.157Z,21.60
2022-09-21T23:34:26.935Z,21.60
2022-09-21T23:37:35.292Z,21.60
2022-09-21T23:40:43.483Z,21.60
2022-09-21T23:43:52.925Z,21.60
2022-09-21T23:47:00.849Z,21.60
2022-09-21T23:50:10.278Z,21.60
2022-09-21T23:53:18.181Z,21.60
2022-09-21T23:56:26.448Z,21.60
2022-09-21T23:59:35.564Z,21.60
